Fox Creek, Colorado
Current Conditions -  °F | °C
As of 1:52 AM on Sunday 21 Dec 2014 (Local Time) from KALS Reporting Station
Clear Clear  
Wind Chill: -1°   Ceiling: Unl
Heat Index: 10°   Visibility: 10mi
Dew Point:   Wind: 7mph
Humidity: 84%   Direction: 280°W
Pressure: 30.02"   Gusts: NA
Location:  37.1816°N, 106.262°W
Report Text: KALS 210852Z AUTO 28006KT 10SM CLR M12/M14 A3002 RMK AO2 SLP195 T11221144 58001
Loading
Personal Weather Stations






























Interactive Weather Map New forecast layout! Learn more

10-Day Weather Forecast

Advertisements
Track Severe Weather on mobile